sensor_id;sensor_type;location;lat;lon;timestamp;P1;durP1;ratioP1;P2;durP2;ratioP2
41057;SDS011;66768;48.884;2.258;2023-08-20T00:01:19;0.40;;;0.40;;
41057;SDS011;66768;48.884;2.258;2023-08-20T00:03:50;0.40;;;0.40;;
41057;SDS011;66768;48.884;2.258;2023-08-20T00:06:18;0.50;;;0.50;;
41057;SDS011;66768;48.884;2.258;2023-08-20T00:08:45;0.50;;;0.50;;
41057;SDS011;66768;48.884;2.258;2023-08-20T00:11:14;0.40;;;0.40;;
41057;SDS011;66768;48.884;2.258;2023-08-20T00:13:42;0.40;;;0.40;;
41057;SDS011;66768;48.884;2.258;2023-08-20T00:16:09;0.40;;;0.40;;
41057;SDS011;66768;48.884;2.258;2023-08-20T00:18:37;0.40;;;0.40;;
41057;SDS011;66768;48.884;2.258;2023-08-20T00:21:05;0.50;;;0.50;;
41057;SDS011;66768;48.884;2.258;2023-08-20T00:23:33;0.40;;;0.40;;
41057;SDS011;66768;48.884;2.258;2023-08-20T00:26:00;0.50;;;0.50;;
41057;SDS011;66768;48.884;2.258;2023-08-20T00:28:29;0.40;;;0.40;;
41057;SDS011;66768;48.884;2.258;2023-08-20T00:30:58;0.40;;;0.40;;
41057;SDS011;66768;48.884;2.258;2023-08-20T00:33:26;0.40;;;0.40;;
41057;SDS011;66768;48.884;2.258;2023-08-20T00:35:53;0.40;;;0.40;;
41057;SDS011;66768;48.884;2.258;2023-08-20T00:38:19;0.30;;;0.30;;
41057;SDS011;66768;48.884;2.258;2023-08-20T00:40:46;0.30;;;0.30;;
41057;SDS011;66768;48.884;2.258;2023-08-20T00:43:13;0.30;;;0.30;;
41057;SDS011;66768;48.884;2.258;2023-08-20T00:45:41;0.40;;;0.40;;
41057;SDS011;66768;48.884;2.258;2023-08-20T00:48:08;0.40;;;0.40;;
41057;SDS011;66768;48.884;2.258;2023-08-20T00:50:37;0.40;;;0.40;;
41057;SDS011;66768;48.884;2.258;2023-08-20T00:53:06;0.40;;;0.40;;
41057;SDS011;66768;48.884;2.258;2023-08-20T00:55:36;0.40;;;0.40;;
41057;SDS011;66768;48.884;2.258;2023-08-20T00:58:03;0.30;;;0.30;;
41057;SDS011;66768;48.884;2.258;2023-08-20T01:00:31;0.30;;;0.30;;
41057;SDS011;66768;48.884;2.258;2023-08-20T01:02:59;0.35;;;0.35;;
41057;SDS011;66768;48.884;2.258;2023-08-20T01:05:26;0.40;;;0.40;;
41057;SDS011;66768;48.884;2.258;2023-08-20T01:07:58;0.40;;;0.40;;
41057;SDS011;66768;48.884;2.258;2023-08-20T01:10:38;0.50;;;0.50;;
41057;SDS011;66768;48.884;2.258;2023-08-20T01:13:10;0.30;;;0.30;;
41057;SDS011;66768;48.884;2.258;2023-08-20T01:15:37;0.40;;;0.40;;
41057;SDS011;66768;48.884;2.258;2023-08-20T01:18:06;0.30;;;0.30;;
41057;SDS011;66768;48.884;2.258;2023-08-20T01:20:33;0.40;;;0.40;;
41057;SDS011;66768;48.884;2.258;2023-08-20T01:23:14;0.30;;;0.30;;
41057;SDS011;66768;48.884;2.258;2023-08-20T01:26:00;0.30;;;0.30;;
41057;SDS011;66768;48.884;2.258;2023-08-20T01:28:43;0.30;;;0.30;;
41057;SDS011;66768;48.884;2.258;2023-08-20T01:31:11;0.40;;;0.40;;
41057;SDS011;66768;48.884;2.258;2023-08-20T01:33:38;0.30;;;0.30;;
41057;SDS011;66768;48.884;2.258;2023-08-20T01:36:07;0.40;;;0.40;;
41057;SDS011;66768;48.884;2.258;2023-08-20T01:38:35;0.30;;;0.30;;
41057;SDS011;66768;48.884;2.258;2023-08-20T01:41:03;0.40;;;0.40;;
41057;SDS011;66768;48.884;2.258;2023-08-20T01:43:30;0.30;;;0.30;;
41057;SDS011;66768;48.884;2.258;2023-08-20T01:45:58;0.30;;;0.30;;
41057;SDS011;66768;48.884;2.258;2023-08-20T01:48:25;0.30;;;0.30;;
41057;SDS011;66768;48.884;2.258;2023-08-20T01:50:52;0.30;;;0.30;;
41057;SDS011;66768;48.884;2.258;2023-08-20T01:53:19;0.30;;;0.30;;
41057;SDS011;66768;48.884;2.258;2023-08-20T01:55:46;0.30;;;0.30;;
41057;SDS011;66768;48.884;2.258;2023-08-20T01:58:13;0.30;;;0.30;;
41057;SDS011;66768;48.884;2.258;2023-08-20T02:00:40;0.30;;;0.30;;
41057;SDS011;66768;48.884;2.258;2023-08-20T02:03:09;0.40;;;0.40;;
41057;SDS011;66768;48.884;2.258;2023-08-20T02:05:36;0.35;;;0.35;;
41057;SDS011;66768;48.884;2.258;2023-08-20T02:08:03;0.40;;;0.40;;
41057;SDS011;66768;48.884;2.258;2023-08-20T02:10:30;0.40;;;0.40;;
41057;SDS011;66768;48.884;2.258;2023-08-20T02:12:57;0.40;;;0.40;;
41057;SDS011;66768;48.884;2.258;2023-08-20T02:15:24;0.40;;;0.40;;
41057;SDS011;66768;48.884;2.258;2023-08-20T02:17:51;0.40;;;0.40;;
41057;SDS011;66768;48.884;2.258;2023-08-20T02:20:19;0.40;;;0.40;;
41057;SDS011;66768;48.884;2.258;2023-08-20T02:22:46;0.30;;;0.30;;
41057;SDS011;66768;48.884;2.258;2023-08-20T02:25:13;0.40;;;0.40;;
41057;SDS011;66768;48.884;2.258;2023-08-20T02:27:40;0.40;;;0.40;;
41057;SDS011;66768;48.884;2.258;2023-08-20T02:30:07;0.40;;;0.40;;
41057;SDS011;66768;48.884;2.258;2023-08-20T02:32:34;0.40;;;0.40;;
41057;SDS011;66768;48.884;2.258;2023-08-20T02:35:01;0.40;;;0.40;;
41057;SDS011;66768;48.884;2.258;2023-08-20T02:37:31;0.40;;;0.40;;
41057;SDS011;66768;48.884;2.258;2023-08-20T02:39:58;0.40;;;0.40;;
41057;SDS011;66768;48.884;2.258;2023-08-20T02:42:25;0.40;;;0.40;;
41057;SDS011;66768;48.884;2.258;2023-08-20T02:44:52;0.40;;;0.40;;
41057;SDS011;66768;48.884;2.258;2023-08-20T02:47:19;0.40;;;0.40;;
41057;SDS011;66768;48.884;2.258;2023-08-20T02:49:46;0.40;;;0.40;;
41057;SDS011;66768;48.884;2.258;2023-08-20T02:52:13;0.40;;;0.40;;
41057;SDS011;66768;48.884;2.258;2023-08-20T02:54:41;0.40;;;0.40;;
41057;SDS011;66768;48.884;2.258;2023-08-20T02:57:08;0.40;;;0.40;;
41057;SDS011;66768;48.884;2.258;2023-08-20T02:59:34;0.50;;;0.50;;
41057;SDS011;66768;48.884;2.258;2023-08-20T03:02:01;0.40;;;0.40;;
41057;SDS011;66768;48.884;2.258;2023-08-20T03:04:29;0.40;;;0.40;;
41057;SDS011;66768;48.884;2.258;2023-08-20T03:06:55;0.40;;;0.40;;
41057;SDS011;66768;48.884;2.258;2023-08-20T03:09:22;0.40;;;0.40;;
41057;SDS011;66768;48.884;2.258;2023-08-20T03:11:51;0.40;;;0.40;;
41057;SDS011;66768;48.884;2.258;2023-08-20T03:14:17;0.40;;;0.40;;
41057;SDS011;66768;48.884;2.258;2023-08-20T03:16:44;0.40;;;0.40;;
41057;SDS011;66768;48.884;2.258;2023-08-20T03:19:13;0.40;;;0.40;;
41057;SDS011;66768;48.884;2.258;2023-08-20T03:21:41;0.40;;;0.40;;
41057;SDS011;66768;48.884;2.258;2023-08-20T03:24:08;0.40;;;0.40;;
41057;SDS011;66768;48.884;2.258;2023-08-20T03:26:35;0.30;;;0.30;;
41057;SDS011;66768;48.884;2.258;2023-08-20T03:29:03;0.30;;;0.30;;
41057;SDS011;66768;48.884;2.258;2023-08-20T03:31:31;0.30;;;0.30;;
41057;SDS011;66768;48.884;2.258;2023-08-20T03:33:57;0.30;;;0.30;;
41057;SDS011;66768;48.884;2.258;2023-08-20T03:36:25;0.40;;;0.40;;
41057;SDS011;66768;48.884;2.258;2023-08-20T03:38:52;0.30;;;0.30;;
41057;SDS011;66768;48.884;2.258;2023-08-20T03:41:18;0.30;;;0.30;;
41057;SDS011;66768;48.884;2.258;2023-08-20T03:43:45;0.30;;;0.30;;
41057;SDS011;66768;48.884;2.258;2023-08-20T03:46:14;0.30;;;0.30;;
41057;SDS011;66768;48.884;2.258;2023-08-20T03:48:41;0.30;;;0.30;;
41057;SDS011;66768;48.884;2.258;2023-08-20T03:51:08;0.35;;;0.35;;
41057;SDS011;66768;48.884;2.258;2023-08-20T03:53:35;0.30;;;0.30;;
41057;SDS011;66768;48.884;2.258;2023-08-20T03:56:02;0.30;;;0.30;;
41057;SDS011;66768;48.884;2.258;2023-08-20T03:58:29;0.30;;;0.30;;
41057;SDS011;66768;48.884;2.258;2023-08-20T04:00:56;0.40;;;0.40;;
41057;SDS011;66768;48.884;2.258;2023-08-20T04:03:24;0.30;;;0.30;;
41057;SDS011;66768;48.884;2.258;2023-08-20T04:05:51;0.40;;;0.40;;
41057;SDS011;66768;48.884;2.258;2023-08-20T04:08:18;0.32;;;0.32;;
41057;SDS011;66768;48.884;2.258;2023-08-20T04:10:45;0.30;;;0.30;;
41057;SDS011;66768;48.884;2.258;2023-08-20T04:13:12;0.30;;;0.30;;
41057;SDS011;66768;48.884;2.258;2023-08-20T04:15:39;0.40;;;0.40;;
41057;SDS011;66768;48.884;2.258;2023-08-20T04:18:07;0.40;;;0.40;;
41057;SDS011;66768;48.884;2.258;2023-08-20T04:20:35;0.40;;;0.40;;
41057;SDS011;66768;48.884;2.258;2023-08-20T04:23:02;0.40;;;0.40;;
41057;SDS011;66768;48.884;2.258;2023-08-20T04:25:30;0.30;;;0.30;;
41057;SDS011;66768;48.884;2.258;2023-08-20T04:27:57;0.40;;;0.40;;
41057;SDS011;66768;48.884;2.258;2023-08-20T04:30:23;0.40;;;0.40;;
41057;SDS011;66768;48.884;2.258;2023-08-20T04:32:51;0.40;;;0.40;;
41057;SDS011;66768;48.884;2.258;2023-08-20T04:35:18;0.40;;;0.40;;
41057;SDS011;66768;48.884;2.258;2023-08-20T04:37:47;0.40;;;0.40;;
41057;SDS011;66768;48.884;2.258;2023-08-20T04:40:13;0.40;;;0.40;;
41057;SDS011;66768;48.884;2.258;2023-08-20T04:42:40;0.40;;;0.40;;
41057;SDS011;66768;48.884;2.258;2023-08-20T04:45:08;0.40;;;0.40;;
41057;SDS011;66768;48.884;2.258;2023-08-20T04:47:35;0.40;;;0.40;;
41057;SDS011;66768;48.884;2.258;2023-08-20T04:50:03;0.40;;;0.40;;
41057;SDS011;66768;48.884;2.258;2023-08-20T04:52:31;0.40;;;0.40;;
41057;SDS011;66768;48.884;2.258;2023-08-20T04:54:59;0.40;;;0.40;;
41057;SDS011;66768;48.884;2.258;2023-08-20T04:57:26;0.40;;;0.40;;
41057;SDS011;66768;48.884;2.258;2023-08-20T04:59:53;0.40;;;0.40;;
41057;SDS011;66768;48.884;2.258;2023-08-20T05:02:20;0.40;;;0.40;;
41057;SDS011;66768;48.884;2.258;2023-08-20T05:04:48;0.40;;;0.40;;
41057;SDS011;66768;48.884;2.258;2023-08-20T05:07:15;0.40;;;0.40;;
41057;SDS011;66768;48.884;2.258;2023-08-20T05:09:42;0.40;;;0.40;;
41057;SDS011;66768;48.884;2.258;2023-08-20T05:12:10;0.40;;;0.40;;
41057;SDS011;66768;48.884;2.258;2023-08-20T05:14:37;0.40;;;0.40;;
41057;SDS011;66768;48.884;2.258;2023-08-20T05:17:04;0.40;;;0.40;;
41057;SDS011;66768;48.884;2.258;2023-08-20T05:19:31;0.40;;;0.40;;
41057;SDS011;66768;48.884;2.258;2023-08-20T05:21:58;0.50;;;0.50;;
41057;SDS011;66768;48.884;2.258;2023-08-20T05:24:25;0.40;;;0.40;;
41057;SDS011;66768;48.884;2.258;2023-08-20T05:27:03;0.40;;;0.40;;
41057;SDS011;66768;48.884;2.258;2023-08-20T05:29:32;0.43;;;0.43;;
41057;SDS011;66768;48.884;2.258;2023-08-20T05:31:59;0.50;;;0.50;;
41057;SDS011;66768;48.884;2.258;2023-08-20T05:34:26;0.47;;;0.47;;
41057;SDS011;66768;48.884;2.258;2023-08-20T05:36:53;0.50;;;0.50;;
41057;SDS011;66768;48.884;2.258;2023-08-20T05:39:20;0.50;;;0.50;;
41057;SDS011;66768;48.884;2.258;2023-08-20T05:41:48;0.50;;;0.50;;
41057;SDS011;66768;48.884;2.258;2023-08-20T05:44:15;0.50;;;0.50;;
41057;SDS011;66768;48.884;2.258;2023-08-20T05:46:43;0.40;;;0.40;;
41057;SDS011;66768;48.884;2.258;2023-08-20T05:49:10;0.40;;;0.40;;
41057;SDS011;66768;48.884;2.258;2023-08-20T05:51:38;0.40;;;0.40;;
41057;SDS011;66768;48.884;2.258;2023-08-20T05:54:05;0.50;;;0.50;;
41057;SDS011;66768;48.884;2.258;2023-08-20T05:56:32;0.50;;;0.50;;
41057;SDS011;66768;48.884;2.258;2023-08-20T05:58:59;0.40;;;0.40;;
41057;SDS011;66768;48.884;2.258;2023-08-20T06:01:25;0.50;;;0.50;;
41057;SDS011;66768;48.884;2.258;2023-08-20T06:03:54;0.50;;;0.50;;
41057;SDS011;66768;48.884;2.258;2023-08-20T06:06:21;0.50;;;0.50;;
41057;SDS011;66768;48.884;2.258;2023-08-20T06:08:48;0.50;;;0.50;;
41057;SDS011;66768;48.884;2.258;2023-08-20T06:11:14;0.50;;;0.50;;
41057;SDS011;66768;48.884;2.258;2023-08-20T06:13:41;0.50;;;0.50;;
41057;SDS011;66768;48.884;2.258;2023-08-20T06:16:08;0.45;;;0.45;;
41057;SDS011;66768;48.884;2.258;2023-08-20T06:18:35;0.50;;;0.50;;
41057;SDS011;66768;48.884;2.258;2023-08-20T06:21:03;0.50;;;0.50;;
41057;SDS011;66768;48.884;2.258;2023-08-20T06:23:30;0.45;;;0.45;;
41057;SDS011;66768;48.884;2.258;2023-08-20T06:25:57;0.40;;;0.40;;
41057;SDS011;66768;48.884;2.258;2023-08-20T06:28:24;0.50;;;0.50;;
41057;SDS011;66768;48.884;2.258;2023-08-20T06:30:50;0.50;;;0.50;;
41057;SDS011;66768;48.884;2.258;2023-08-20T06:33:17;0.47;;;0.47;;
41057;SDS011;66768;48.884;2.258;2023-08-20T06:35:44;0.50;;;0.50;;
41057;SDS011;66768;48.884;2.258;2023-08-20T06:38:12;0.50;;;0.50;;
41057;SDS011;66768;48.884;2.258;2023-08-20T06:40:39;0.40;;;0.40;;
41057;SDS011;66768;48.884;2.258;2023-08-20T06:43:06;0.50;;;0.50;;
41057;SDS011;66768;48.884;2.258;2023-08-20T06:45:33;0.40;;;0.40;;
41057;SDS011;66768;48.884;2.258;2023-08-20T06:48:00;0.57;;;0.57;;
41057;SDS011;66768;48.884;2.258;2023-08-20T06:50:27;0.50;;;0.50;;
41057;SDS011;66768;48.884;2.258;2023-08-20T06:52:53;0.50;;;0.50;;
41057;SDS011;66768;48.884;2.258;2023-08-20T06:55:22;0.50;;;0.50;;
41057;SDS011;66768;48.884;2.258;2023-08-20T06:57:49;0.50;;;0.50;;
41057;SDS011;66768;48.884;2.258;2023-08-20T07:00:15;0.40;;;0.40;;
41057;SDS011;66768;48.884;2.258;2023-08-20T07:02:44;0.40;;;0.40;;
41057;SDS011;66768;48.884;2.258;2023-08-20T07:05:11;0.40;;;0.40;;
41057;SDS011;66768;48.884;2.258;2023-08-20T07:07:39;0.50;;;0.50;;
41057;SDS011;66768;48.884;2.258;2023-08-20T07:10:06;0.50;;;0.50;;
41057;SDS011;66768;48.884;2.258;2023-08-20T07:12:35;0.40;;;0.40;;
41057;SDS011;66768;48.884;2.258;2023-08-20T07:15:02;0.50;;;0.50;;
41057;SDS011;66768;48.884;2.258;2023-08-20T07:17:30;0.50;;;0.50;;
41057;SDS011;66768;48.884;2.258;2023-08-20T07:19:56;0.50;;;0.50;;
41057;SDS011;66768;48.884;2.258;2023-08-20T07:22:24;0.50;;;0.50;;
41057;SDS011;66768;48.884;2.258;2023-08-20T07:24:50;0.50;;;0.50;;
41057;SDS011;66768;48.884;2.258;2023-08-20T07:27:17;0.40;;;0.40;;
41057;SDS011;66768;48.884;2.258;2023-08-20T07:29:45;0.40;;;0.40;;
41057;SDS011;66768;48.884;2.258;2023-08-20T07:32:12;0.50;;;0.50;;
41057;SDS011;66768;48.884;2.258;2023-08-20T07:34:39;0.50;;;0.50;;
41057;SDS011;66768;48.884;2.258;2023-08-20T07:37:06;0.40;;;0.40;;
41057;SDS011;66768;48.884;2.258;2023-08-20T07:39:33;0.40;;;0.40;;
41057;SDS011;66768;48.884;2.258;2023-08-20T07:42:00;0.50;;;0.50;;
41057;SDS011;66768;48.884;2.258;2023-08-20T07:44:27;0.50;;;0.50;;
41057;SDS011;66768;48.884;2.258;2023-08-20T07:46:55;0.50;;;0.50;;
41057;SDS011;66768;48.884;2.258;2023-08-20T07:49:22;0.50;;;0.50;;
41057;SDS011;66768;48.884;2.258;2023-08-20T07:51:49;0.50;;;0.50;;
41057;SDS011;66768;48.884;2.258;2023-08-20T07:54:17;0.50;;;0.50;;
41057;SDS011;66768;48.884;2.258;2023-08-20T07:56:44;0.50;;;0.50;;
41057;SDS011;66768;48.884;2.258;2023-08-20T07:59:11;0.50;;;0.50;;
41057;SDS011;66768;48.884;2.258;2023-08-20T08:01:38;0.50;;;0.50;;
41057;SDS011;66768;48.884;2.258;2023-08-20T08:04:06;0.50;;;0.50;;
41057;SDS011;66768;48.884;2.258;2023-08-20T08:06:33;0.60;;;0.60;;
41057;SDS011;66768;48.884;2.258;2023-08-20T08:09:14;0.60;;;0.60;;
41057;SDS011;66768;48.884;2.258;2023-08-20T08:11:44;0.60;;;0.60;;
41057;SDS011;66768;48.884;2.258;2023-08-20T08:14:11;0.70;;;0.70;;
41057;SDS011;66768;48.884;2.258;2023-08-20T08:16:38;0.60;;;0.60;;
41057;SDS011;66768;48.884;2.258;2023-08-20T08:19:05;0.60;;;0.60;;
41057;SDS011;66768;48.884;2.258;2023-08-20T08:21:33;0.60;;;0.60;;
41057;SDS011;66768;48.884;2.258;2023-08-20T08:24:00;0.60;;;0.60;;
41057;SDS011;66768;48.884;2.258;2023-08-20T08:26:27;0.60;;;0.60;;
41057;SDS011;66768;48.884;2.258;2023-08-20T08:28:54;0.63;;;0.63;;
41057;SDS011;66768;48.884;2.258;2023-08-20T08:31:21;0.70;;;0.70;;
41057;SDS011;66768;48.884;2.258;2023-08-20T08:33:47;0.70;;;0.70;;
41057;SDS011;66768;48.884;2.258;2023-08-20T08:36:16;0.60;;;0.60;;
41057;SDS011;66768;48.884;2.258;2023-08-20T08:38:42;0.57;;;0.57;;
41057;SDS011;66768;48.884;2.258;2023-08-20T08:41:10;0.60;;;0.60;;
41057;SDS011;66768;48.884;2.258;2023-08-20T08:43:38;0.60;;;0.60;;
41057;SDS011;66768;48.884;2.258;2023-08-20T08:46:06;0.50;;;0.50;;
41057;SDS011;66768;48.884;2.258;2023-08-20T08:48:34;0.52;;;0.52;;
41057;SDS011;66768;48.884;2.258;2023-08-20T08:51:02;0.55;;;0.55;;
41057;SDS011;66768;48.884;2.258;2023-08-20T08:53:30;0.57;;;0.57;;
41057;SDS011;66768;48.884;2.258;2023-08-20T08:55:58;0.55;;;0.55;;
41057;SDS011;66768;48.884;2.258;2023-08-20T08:58:25;0.60;;;0.60;;
41057;SDS011;66768;48.884;2.258;2023-08-20T09:00:52;0.60;;;0.60;;
41057;SDS011;66768;48.884;2.258;2023-08-20T09:03:19;0.55;;;0.55;;
41057;SDS011;66768;48.884;2.258;2023-08-20T09:05:46;0.60;;;0.60;;
41057;SDS011;66768;48.884;2.258;2023-08-20T09:08:19;0.63;;;0.63;;
41057;SDS011;66768;48.884;2.258;2023-08-20T09:10:50;0.60;;;0.60;;
41057;SDS011;66768;48.884;2.258;2023-08-20T09:13:22;0.60;;;0.60;;
41057;SDS011;66768;48.884;2.258;2023-08-20T09:15:50;0.70;;;0.70;;
41057;SDS011;66768;48.884;2.258;2023-08-20T09:18:17;0.60;;;0.60;;
41057;SDS011;66768;48.884;2.258;2023-08-20T09:20:44;0.60;;;0.60;;
41057;SDS011;66768;48.884;2.258;2023-08-20T09:23:13;0.70;;;0.70;;
41057;SDS011;66768;48.884;2.258;2023-08-20T09:25:40;0.70;;;0.70;;
41057;SDS011;66768;48.884;2.258;2023-08-20T09:28:10;0.60;;;0.60;;
41057;SDS011;66768;48.884;2.258;2023-08-20T09:30:37;0.60;;;0.60;;
41057;SDS011;66768;48.884;2.258;2023-08-20T09:33:07;0.57;;;0.57;;
41057;SDS011;66768;48.884;2.258;2023-08-20T09:35:36;0.60;;;0.60;;
41057;SDS011;66768;48.884;2.258;2023-08-20T09:38:03;0.52;;;0.52;;
41057;SDS011;66768;48.884;2.258;2023-08-20T09:40:30;0.40;;;0.40;;
41057;SDS011;66768;48.884;2.258;2023-08-20T09:42:57;0.43;;;0.43;;
41057;SDS011;66768;48.884;2.258;2023-08-20T09:45:28;0.40;;;0.40;;
41057;SDS011;66768;48.884;2.258;2023-08-20T09:47:55;0.40;;;0.40;;
41057;SDS011;66768;48.884;2.258;2023-08-20T09:50:24;0.30;;;0.30;;
41057;SDS011;66768;48.884;2.258;2023-08-20T09:52:55;0.40;;;0.40;;
41057;SDS011;66768;48.884;2.258;2023-08-20T09:55:28;0.30;;;0.30;;
41057;SDS011;66768;48.884;2.258;2023-08-20T09:57:59;0.50;;;0.50;;
41057;SDS011;66768;48.884;2.258;2023-08-20T10:00:29;0.50;;;0.50;;
41057;SDS011;66768;48.884;2.258;2023-08-20T10:02:56;0.50;;;0.50;;
41057;SDS011;66768;48.884;2.258;2023-08-20T10:05:24;0.40;;;0.40;;
41057;SDS011;66768;48.884;2.258;2023-08-20T10:07:52;0.40;;;0.40;;
41057;SDS011;66768;48.884;2.258;2023-08-20T10:10:20;0.40;;;0.40;;
41057;SDS011;66768;48.884;2.258;2023-08-20T10:12:47;0.40;;;0.40;;
41057;SDS011;66768;48.884;2.258;2023-08-20T10:15:14;0.38;;;0.38;;
41057;SDS011;66768;48.884;2.258;2023-08-20T10:17:43;0.40;;;0.40;;
41057;SDS011;66768;48.884;2.258;2023-08-20T10:20:12;0.40;;;0.40;;
41057;SDS011;66768;48.884;2.258;2023-08-20T10:22:41;0.40;;;0.40;;
41057;SDS011;66768;48.884;2.258;2023-08-20T10:25:09;0.50;;;0.50;;
41057;SDS011;66768;48.884;2.258;2023-08-20T10:27:37;0.40;;;0.40;;
41057;SDS011;66768;48.884;2.258;2023-08-20T10:30:09;0.40;;;0.40;;
41057;SDS011;66768;48.884;2.258;2023-08-20T10:32:45;0.30;;;0.30;;
41057;SDS011;66768;48.884;2.258;2023-08-20T10:35:14;0.32;;;0.32;;
41057;SDS011;66768;48.884;2.258;2023-08-20T10:43:23;0.30;;;0.30;;
41057;SDS011;66768;48.884;2.258;2023-08-20T10:48:43;0.40;;;0.40;;
41057;SDS011;66768;48.884;2.258;2023-08-20T10:51:14;0.30;;;0.30;;
41057;SDS011;66768;48.884;2.258;2023-08-20T10:53:42;0.40;;;0.40;;
41057;SDS011;66768;48.884;2.258;2023-08-20T10:56:11;0.40;;;0.40;;
41057;SDS011;66768;48.884;2.258;2023-08-20T10:58:40;0.40;;;0.40;;
41057;SDS011;66768;48.884;2.258;2023-08-20T11:03:57;0.40;;;0.40;;
41057;SDS011;66768;48.884;2.258;2023-08-20T11:06:25;0.30;;;0.30;;
41057;SDS011;66768;48.884;2.258;2023-08-20T11:08:57;0.30;;;0.30;;
41057;SDS011;66768;48.884;2.258;2023-08-20T11:11:24;0.40;;;0.40;;
41057;SDS011;66768;48.884;2.258;2023-08-20T11:13:52;0.30;;;0.30;;
41057;SDS011;66768;48.884;2.258;2023-08-20T11:16:18;0.50;;;0.50;;
41057;SDS011;66768;48.884;2.258;2023-08-20T11:18:46;0.30;;;0.30;;
41057;SDS011;66768;48.884;2.258;2023-08-20T11:21:14;0.40;;;0.40;;
41057;SDS011;66768;48.884;2.258;2023-08-20T11:23:51;0.50;;;0.50;;
41057;SDS011;66768;48.884;2.258;2023-08-20T11:26:20;0.40;;;0.40;;
41057;SDS011;66768;48.884;2.258;2023-08-20T11:28:47;0.40;;;0.40;;
41057;SDS011;66768;48.884;2.258;2023-08-20T11:31:13;0.40;;;0.40;;
41057;SDS011;66768;48.884;2.258;2023-08-20T11:33:41;0.40;;;0.40;;
41057;SDS011;66768;48.884;2.258;2023-08-20T11:36:08;0.47;;;0.47;;
41057;SDS011;66768;48.884;2.258;2023-08-20T11:38:35;0.50;;;0.50;;
41057;SDS011;66768;48.884;2.258;2023-08-20T11:41:04;0.40;;;0.40;;
41057;SDS011;66768;48.884;2.258;2023-08-20T11:43:31;0.50;;;0.50;;
41057;SDS011;66768;48.884;2.258;2023-08-20T11:45:59;0.40;;;0.40;;
41057;SDS011;66768;48.884;2.258;2023-08-20T11:48:26;0.40;;;0.40;;
41057;SDS011;66768;48.884;2.258;2023-08-20T11:50:53;0.45;;;0.45;;
41057;SDS011;66768;48.884;2.258;2023-08-20T11:53:22;0.50;;;0.50;;
41057;SDS011;66768;48.884;2.258;2023-08-20T11:55:49;0.50;;;0.50;;
41057;SDS011;66768;48.884;2.258;2023-08-20T11:58:18;0.40;;;0.40;;
41057;SDS011;66768;48.884;2.258;2023-08-20T12:00:48;0.40;;;0.40;;
41057;SDS011;66768;48.884;2.258;2023-08-20T12:03:17;0.40;;;0.40;;
41057;SDS011;66768;48.884;2.258;2023-08-20T12:05:44;0.40;;;0.40;;
41057;SDS011;66768;48.884;2.258;2023-08-20T12:08:14;0.40;;;0.40;;
41057;SDS011;66768;48.884;2.258;2023-08-20T12:10:43;0.40;;;0.40;;
41057;SDS011;66768;48.884;2.258;2023-08-20T12:13:10;0.40;;;0.40;;
41057;SDS011;66768;48.884;2.258;2023-08-20T12:15:38;0.40;;;0.40;;
41057;SDS011;66768;48.884;2.258;2023-08-20T12:18:06;0.40;;;0.40;;
41057;SDS011;66768;48.884;2.258;2023-08-20T12:20:34;0.45;;;0.45;;
41057;SDS011;66768;48.884;2.258;2023-08-20T12:23:02;0.40;;;0.40;;
41057;SDS011;66768;48.884;2.258;2023-08-20T12:25:30;0.35;;;0.35;;
41057;SDS011;66768;48.884;2.258;2023-08-20T12:27:58;0.40;;;0.40;;
41057;SDS011;66768;48.884;2.258;2023-08-20T12:30:26;0.40;;;0.40;;
41057;SDS011;66768;48.884;2.258;2023-08-20T12:32:54;0.40;;;0.40;;
41057;SDS011;66768;48.884;2.258;2023-08-20T12:35:21;0.40;;;0.40;;
41057;SDS011;66768;48.884;2.258;2023-08-20T12:37:48;0.50;;;0.50;;
41057;SDS011;66768;48.884;2.258;2023-08-20T12:40:15;0.40;;;0.40;;
41057;SDS011;66768;48.884;2.258;2023-08-20T12:42:43;0.40;;;0.40;;
41057;SDS011;66768;48.884;2.258;2023-08-20T12:45:10;0.40;;;0.40;;
41057;SDS011;66768;48.884;2.258;2023-08-20T12:47:38;0.40;;;0.40;;
41057;SDS011;66768;48.884;2.258;2023-08-20T12:50:07;0.57;;;0.57;;
41057;SDS011;66768;48.884;2.258;2023-08-20T12:52:35;0.40;;;0.40;;
41057;SDS011;66768;48.884;2.258;2023-08-20T12:55:02;0.40;;;0.40;;
41057;SDS011;66768;48.884;2.258;2023-08-20T12:57:29;0.60;;;0.60;;
41057;SDS011;66768;48.884;2.258;2023-08-20T12:59:56;0.40;;;0.40;;
41057;SDS011;66768;48.884;2.258;2023-08-20T13:02:24;0.30;;;0.30;;
41057;SDS011;66768;48.884;2.258;2023-08-20T13:04:51;0.40;;;0.40;;
41057;SDS011;66768;48.884;2.258;2023-08-20T13:07:20;0.40;;;0.40;;
41057;SDS011;66768;48.884;2.258;2023-08-20T13:09:48;0.45;;;0.45;;
41057;SDS011;66768;48.884;2.258;2023-08-20T13:12:15;0.50;;;0.50;;
41057;SDS011;66768;48.884;2.258;2023-08-20T13:14:44;0.50;;;0.50;;
41057;SDS011;66768;48.884;2.258;2023-08-20T13:17:12;0.50;;;0.50;;
41057;SDS011;66768;48.884;2.258;2023-08-20T13:19:39;0.50;;;0.50;;
41057;SDS011;66768;48.884;2.258;2023-08-20T13:22:06;0.40;;;0.40;;
41057;SDS011;66768;48.884;2.258;2023-08-20T13:24:34;0.40;;;0.40;;
41057;SDS011;66768;48.884;2.258;2023-08-20T13:27:01;0.40;;;0.40;;
41057;SDS011;66768;48.884;2.258;2023-08-20T13:29:28;0.40;;;0.40;;
41057;SDS011;66768;48.884;2.258;2023-08-20T13:31:55;0.50;;;0.50;;
41057;SDS011;66768;48.884;2.258;2023-08-20T13:34:21;0.40;;;0.40;;
41057;SDS011;66768;48.884;2.258;2023-08-20T13:36:48;0.50;;;0.50;;
41057;SDS011;66768;48.884;2.258;2023-08-20T13:39:15;0.40;;;0.40;;
41057;SDS011;66768;48.884;2.258;2023-08-20T13:41:45;0.35;;;0.35;;
41057;SDS011;66768;48.884;2.258;2023-08-20T13:44:12;0.40;;;0.40;;
41057;SDS011;66768;48.884;2.258;2023-08-20T13:46:39;0.40;;;0.40;;
41057;SDS011;66768;48.884;2.258;2023-08-20T13:49:06;0.43;;;0.43;;
41057;SDS011;66768;48.884;2.258;2023-08-20T13:51:33;0.50;;;0.50;;
41057;SDS011;66768;48.884;2.258;2023-08-20T13:54:00;0.40;;;0.40;;
41057;SDS011;66768;48.884;2.258;2023-08-20T13:56:27;0.30;;;0.30;;
41057;SDS011;66768;48.884;2.258;2023-08-20T13:58:55;0.50;;;0.50;;
41057;SDS011;66768;48.884;2.258;2023-08-20T14:01:22;0.40;;;0.40;;
41057;SDS011;66768;48.884;2.258;2023-08-20T14:03:49;0.50;;;0.50;;
41057;SDS011;66768;48.884;2.258;2023-08-20T14:06:16;0.40;;;0.40;;
41057;SDS011;66768;48.884;2.258;2023-08-20T14:08:42;0.35;;;0.35;;
41057;SDS011;66768;48.884;2.258;2023-08-20T14:11:09;0.40;;;0.40;;
41057;SDS011;66768;48.884;2.258;2023-08-20T14:13:36;0.50;;;0.50;;
41057;SDS011;66768;48.884;2.258;2023-08-20T14:16:05;0.50;;;0.50;;
41057;SDS011;66768;48.884;2.258;2023-08-20T14:18:33;0.40;;;0.40;;
41057;SDS011;66768;48.884;2.258;2023-08-20T14:21:00;0.38;;;0.38;;
41057;SDS011;66768;48.884;2.258;2023-08-20T14:23:28;0.50;;;0.50;;
41057;SDS011;66768;48.884;2.258;2023-08-20T14:25:55;0.50;;;0.50;;
41057;SDS011;66768;48.884;2.258;2023-08-20T14:28:22;0.52;;;0.52;;
41057;SDS011;66768;48.884;2.258;2023-08-20T14:30:49;0.40;;;0.40;;
41057;SDS011;66768;48.884;2.258;2023-08-20T14:33:20;0.47;;;0.47;;
41057;SDS011;66768;48.884;2.258;2023-08-20T14:35:47;0.50;;;0.50;;
41057;SDS011;66768;48.884;2.258;2023-08-20T14:38:14;0.50;;;0.50;;
41057;SDS011;66768;48.884;2.258;2023-08-20T14:40:41;0.40;;;0.40;;
41057;SDS011;66768;48.884;2.258;2023-08-20T14:43:07;0.40;;;0.40;;
41057;SDS011;66768;48.884;2.258;2023-08-20T14:45:35;0.50;;;0.50;;
41057;SDS011;66768;48.884;2.258;2023-08-20T14:48:02;0.40;;;0.40;;
41057;SDS011;66768;48.884;2.258;2023-08-20T14:50:30;0.40;;;0.40;;
41057;SDS011;66768;48.884;2.258;2023-08-20T14:52:57;0.40;;;0.40;;
41057;SDS011;66768;48.884;2.258;2023-08-20T14:55:24;0.47;;;0.47;;
41057;SDS011;66768;48.884;2.258;2023-08-20T14:57:51;0.40;;;0.40;;
41057;SDS011;66768;48.884;2.258;2023-08-20T15:00:19;0.50;;;0.50;;
41057;SDS011;66768;48.884;2.258;2023-08-20T15:02:47;0.40;;;0.40;;